Accueil
METAR-TAF:

METAR-TAF

Aéroports :

Wiener Neustadt, Autriche

latitude: 47-50-36N, longitude: 016-15-29E, altitude: 272 m

Observation

Le bulletin a été fait il y a 11 heures et 45 minutes, à 17:00 UTC
Vent 5 kt de nord-est
Température
Pression
Visibilité 10 km ou plus

METAR: LOAN 191700Z 05005KT 9999 FEW020CU BKN060SC

Heure: 06:45 (04:45 UTC)

Prévision

Le bulletin a été fait il y a 17 heures et 20 minutes, à 11:25 UTC
Prévision valable du 19 à 12 UTC au 19 à 21 UTC
Vent 8 kt de nord/nord-est
Visibilité 10 km ou plus
Nuages fragmentés à une hauteur de 4000 ft

TAF: LOAN 191125Z 1912/1921 02008KT 9999 BKN040

Observations et prévisions météorologiques de plus de 4000 aéroports (messages METAR et TAF).

Les stations disponibles sont représentées par des disques jaunes et rouges sur la carte.

Passer la souris dessus pour voir le nom de la station.

Cliquer dessus pour voir les observations et prévisions météorologiques.

Pour changer de carte: cliquez sur les boutons verts avec une croix noire pour zoomer, sur le bouton vert avec un tiret pour effectuer un zoom arrière, ou sur les flèches vertes pour les cartes adjacentes.


METAR-TAF: